createdAt,value
2022-12-03T00:00:58.776Z,99686.02
2022-12-03T00:03:30.729Z,99678.20
2022-12-03T00:06:01.429Z,99675.14
2022-12-03T00:08:32.165Z,99675.21
2022-12-03T00:11:02.963Z,99666.30
2022-12-03T00:13:33.723Z,99672.69
2022-12-03T00:16:04.522Z,99670.08
2022-12-03T00:18:35.283Z,99668.36
2022-12-03T00:21:06.768Z,99669.09
2022-12-03T00:23:42.095Z,99666.79
2022-12-03T00:26:13.116Z,99665.90
2022-12-03T00:28:43.799Z,99667.04
2022-12-03T00:31:14.523Z,99653.90
2022-12-03T00:33:45.306Z,99670.46
2022-12-03T00:36:16.048Z,99667.41
2022-12-03T00:38:46.752Z,99663.72
2022-12-03T00:41:17.488Z,99661.73
2022-12-03T00:43:48.471Z,99660.70
2022-12-03T00:46:21.589Z,99660.73
2022-12-03T00:48:52.772Z,99657.70
2022-12-03T00:51:23.509Z,99660.59
2022-12-03T00:53:54.354Z,99661.07
2022-12-03T00:56:25.029Z,99661.66
2022-12-03T00:58:55.826Z,99658.44
2022-12-03T01:01:26.890Z,99657.13
2022-12-03T01:03:57.753Z,99655.91
2022-12-03T01:06:28.550Z,99657.05
2022-12-03T01:08:59.287Z,99658.07
2022-12-03T01:11:39.337Z,99654.96
2022-12-03T01:14:11.446Z,99658.71
2022-12-03T01:16:43.062Z,99661.10
2022-12-03T01:19:16.184Z,99661.73
2022-12-03T01:21:48.532Z,99661.43
2022-12-03T01:24:20.521Z,99664.22
2022-12-03T01:26:51.235Z,99664.73
2022-12-03T01:29:21.843Z,99664.29
2022-12-03T01:32:10.210Z,99666.25
2022-12-03T01:34:40.946Z,99663.98
2022-12-03T01:37:11.788Z,99663.55
2022-12-03T01:39:42.610Z,99665.03
2022-12-03T01:42:17.459Z,99669.14
2022-12-03T01:44:49.120Z,99670.05
2022-12-03T01:47:22.105Z,99670.34
2022-12-03T01:49:56.517Z,99670.17
2022-12-03T01:52:29.528Z,99667.98
2022-12-03T01:55:03.127Z,99667.79
2022-12-03T01:57:41.086Z,99659.48
2022-12-03T02:00:16.594Z,99660.67
2022-12-03T02:02:48.228Z,99658.21
2022-12-03T02:05:21.674Z,99658.56
2022-12-03T02:07:52.655Z,99655.20
2022-12-03T02:10:27.639Z,99650.94
2022-12-03T02:13:02.367Z,99650.05
2022-12-03T02:15:33.579Z,99650.40
2022-12-03T02:18:05.046Z,99645.52
2022-12-03T02:20:43.794Z,99650.21
2022-12-03T02:23:22.656Z,99647.41
2022-12-03T02:25:53.570Z,99648.79
2022-12-03T02:28:24.538Z,99651.21
2022-12-03T02:30:55.281Z,99651.39
2022-12-03T02:33:26.042Z,99653.55
2022-12-03T02:36:01.918Z,99650.42
2022-12-03T02:38:35.705Z,99660.46
2022-12-03T02:41:09.760Z,99652.25
2022-12-03T02:43:40.863Z,99655.87
2022-12-03T02:46:11.591Z,99654.98
2022-12-03T02:48:43.214Z,99656.58
2022-12-03T02:51:14.405Z,99658.70
2022-12-03T02:53:47.500Z,99666.86
2022-12-03T02:56:22.270Z,99672.73
2022-12-03T02:58:57.876Z,99672.23
2022-12-03T03:01:29.309Z,99671.06
2022-12-03T03:04:00.744Z,99670.86
2022-12-03T03:06:32.138Z,99670.25
2022-12-03T03:09:03.590Z,99665.33
2022-12-03T03:11:34.522Z,99663.66
2022-12-03T03:14:05.647Z,99656.71
2022-12-03T03:16:38.001Z,99659.22
2022-12-03T03:19:09.465Z,99656.86
2022-12-03T03:21:40.291Z,99653.30
2022-12-03T03:24:11.705Z,99648.98
2022-12-03T03:26:42.459Z,99648.09
2022-12-03T03:29:13.485Z,99648.47
2022-12-03T03:31:45.930Z,99651.58
2022-12-03T03:34:17.531Z,99653.55
2022-12-03T03:36:48.834Z,99654.81
2022-12-03T03:39:19.596Z,99653.64
2022-12-03T03:41:51.024Z,99650.42
2022-12-03T03:44:21.864Z,99647.51
2022-12-03T03:46:53.101Z,99643.28
2022-12-03T03:49:24.538Z,99644.91
2022-12-03T03:51:55.745Z,99645.05
2022-12-03T03:54:26.669Z,99641.34
2022-12-03T03:56:57.502Z,99638.15
2022-12-03T03:59:28.181Z,99636.88
2022-12-03T04:01:58.913Z,99635.65
2022-12-03T04:04:37.957Z,99635.88
2022-12-03T04:07:08.762Z,99630.44
2022-12-03T04:09:39.396Z,99630.55
2022-12-03T04:12:28.350Z,99629.17
2022-12-03T04:14:59.389Z,99627.98
2022-12-03T04:17:30.646Z,99626.59
2022-12-03T04:20:01.297Z,99626.11
2022-12-03T04:22:40.999Z,99622.73
2022-12-03T04:25:30.742Z,99626.63
2022-12-03T04:28:19.081Z,99624.78
2022-12-03T04:30:49.733Z,99625.04
2022-12-03T04:33:38.229Z,99626.53
2022-12-03T04:36:09.643Z,99624.58
2022-12-03T04:38:40.275Z,99627.14
2022-12-03T04:41:11.071Z,99623.73
2022-12-03T04:43:55.704Z,99622.13
2022-12-03T04:46:26.414Z,99618.84
2022-12-03T04:48:57.116Z,99617.64
2022-12-03T04:51:27.993Z,99622.29
2022-12-03T04:53:58.635Z,99620.78
2022-12-03T04:56:29.291Z,99620.73
2022-12-03T04:58:59.925Z,99630.05
2022-12-03T05:01:30.933Z,99625.25
2022-12-03T05:04:01.788Z,99626.41
2022-12-03T05:06:33.589Z,99625.07
2022-12-03T05:09:04.515Z,99622.38
2022-12-03T05:11:35.332Z,99622.83
2022-12-03T05:14:06.215Z,99623.04
2022-12-03T05:16:37.171Z,99624.48
2022-12-03T05:19:10.007Z,99622.08
2022-12-03T05:21:40.721Z,99621.44
2022-12-03T05:24:11.591Z,99620.55
2022-12-03T05:26:42.645Z,99616.49
2022-12-03T05:29:13.381Z,99620.38
2022-12-03T05:31:44.018Z,99619.65
2022-12-03T05:34:14.700Z,99623.61
2022-12-03T05:36:45.494Z,99626.41
2022-12-03T05:39:16.337Z,99632.02
2022-12-03T05:42:04.982Z,99633.39
2022-12-03T05:44:35.615Z,99634.79
2022-12-03T05:47:06.350Z,99633.77
2022-12-03T05:49:37.016Z,99635.29
2022-12-03T05:52:07.886Z,99630.20
2022-12-03T05:54:38.529Z,99632.54
2022-12-03T05:57:09.405Z,99633.73
2022-12-03T05:59:40.181Z,99634.69
2022-12-03T06:02:10.831Z,99632.93
2022-12-03T06:04:41.635Z,99627.54
2022-12-03T06:07:14.093Z,99630.16
2022-12-03T06:09:45.142Z,99630.02
2022-12-03T06:12:15.799Z,99630.89
2022-12-03T06:14:46.726Z,99636.25
2022-12-03T06:17:17.562Z,99634.89
2022-12-03T06:19:48.521Z,99639.25
2022-12-03T06:22:19.478Z,99636.36
2022-12-03T06:24:50.733Z,99637.41
2022-12-03T06:27:21.844Z,99636.21
2022-12-03T06:29:52.580Z,99641.55
2022-12-03T06:32:23.417Z,99639.51
2022-12-03T06:34:54.535Z,99641.12
2022-12-03T06:37:25.767Z,99638.53
2022-12-03T06:39:56.656Z,99637.33
2022-12-03T06:42:27.460Z,99634.91
2022-12-03T06:44:58.134Z,99632.97
2022-12-03T06:47:28.815Z,99633.77
2022-12-03T06:49:59.713Z,99631.85
2022-12-03T06:52:30.449Z,99631.55
2022-12-03T06:55:01.390Z,99625.67
2022-12-03T06:57:32.264Z,99630.64
2022-12-03T07:00:03.589Z,99635.92
2022-12-03T07:02:34.454Z,99636.05
2022-12-03T07:05:05.812Z,99628.46
2022-12-03T07:07:36.786Z,99628.40
2022-12-03T07:10:09.442Z,99625.55
2022-12-03T07:12:40.082Z,99623.14
2022-12-03T07:15:12.413Z,99619.05
2022-12-03T07:17:43.522Z,99614.95
2022-12-03T07:20:16.327Z,99609.64
2022-12-03T07:22:47.181Z,99612.99
2022-12-03T07:25:22.920Z,99612.20
2022-12-03T07:27:54.491Z,99609.60
2022-12-03T07:30:25.812Z,99615.31
2022-12-03T07:32:56.583Z,99610.95
2022-12-03T07:35:27.465Z,99602.33
2022-12-03T07:37:58.157Z,99614.45
2022-12-03T07:40:28.923Z,99610.75
2022-12-03T07:42:59.719Z,99606.87
2022-12-03T07:45:30.473Z,99607.13
2022-12-03T07:48:01.183Z,99612.35
2022-12-03T07:50:31.925Z,99612.42
2022-12-03T07:53:02.686Z,99611.27
2022-12-03T07:55:33.354Z,99608.06
2022-12-03T07:58:04.028Z,99610.20
2022-12-03T08:00:34.856Z,99612.27
2022-12-03T08:03:05.743Z,99611.63
2022-12-03T08:05:36.731Z,99612.15
2022-12-03T08:08:07.970Z,99609.83
2022-12-03T08:10:38.998Z,99614.95
2022-12-03T08:13:14.772Z,99614.31
2022-12-03T08:15:46.484Z,99619.39
2022-12-03T08:18:20.732Z,99615.55
2022-12-03T08:20:53.019Z,99615.69
2022-12-03T08:23:27.055Z,99615.67
2022-12-03T08:26:05.201Z,99614.16
2022-12-03T08:28:36.917Z,99616.08
2022-12-03T08:31:20.015Z,99616.41
2022-12-03T08:33:52.978Z,99615.96
2022-12-03T08:36:25.554Z,99621.46
2022-12-03T08:39:00.116Z,99620.23
2022-12-03T08:41:49.716Z,99622.70
2022-12-03T08:44:27.550Z,99625.58
2022-12-03T08:47:07.698Z,99623.89
2022-12-03T08:49:38.724Z,99619.45
2022-12-03T08:52:16.471Z,99616.81
2022-12-03T08:54:52.981Z,99613.66
2022-12-03T08:57:29.561Z,99613.06
2022-12-03T09:00:03.693Z,99609.82
2022-12-03T09:02:36.922Z,99604.02
2022-12-03T09:05:17.300Z,99618.21
2022-12-03T09:07:48.370Z,99617.48
2022-12-03T09:10:19.288Z,99616.65
2022-12-03T09:12:50.167Z,99617.80
2022-12-03T09:15:20.969Z,99616.36
2022-12-03T09:17:51.932Z,99616.50
2022-12-03T09:20:23.132Z,99617.58
2022-12-03T09:22:53.949Z,99618.11
2022-12-03T09:25:24.592Z,99607.52
2022-12-03T09:27:55.509Z,99620.64
2022-12-03T09:30:26.363Z,99617.81
2022-12-03T09:32:57.176Z,99618.65
2022-12-03T09:35:27.892Z,99623.49
2022-12-03T09:37:58.781Z,99618.41
2022-12-03T09:40:29.977Z,99612.65
2022-12-03T09:43:01.061Z,99612.00
2022-12-03T09:45:31.893Z,99606.76
2022-12-03T09:48:04.895Z,99601.14
2022-12-03T09:50:39.739Z,99598.48
2022-12-03T09:53:15.654Z,99592.80
2022-12-03T09:55:49.871Z,99591.27
2022-12-03T09:58:23.206Z,99586.33
2022-12-03T10:00:54.506Z,99589.92
2022-12-03T10:03:31.383Z,99588.89
2022-12-03T10:06:02.281Z,99585.02
2022-12-03T10:08:33.937Z,99581.28
2022-12-03T10:11:04.712Z,99578.67
2022-12-03T10:13:37.403Z,99589.40
2022-12-03T10:16:13.353Z,99585.39
2022-12-03T10:18:47.325Z,99582.10
2022-12-03T10:21:24.345Z,99581.33
2022-12-03T10:24:20.530Z,99584.48
2022-12-03T10:26:52.718Z,99584.10
2022-12-03T10:29:31.575Z,99586.00
2022-12-03T10:32:06.562Z,99584.66
2022-12-03T10:34:39.368Z,99588.74
2022-12-03T10:37:16.055Z,99590.60
2022-12-03T10:39:59.473Z,99591.24
2022-12-03T10:42:32.638Z,99587.30
2022-12-03T10:45:18.038Z,99579.41
2022-12-03T10:48:05.180Z,99579.13
2022-12-03T10:50:36.928Z,99585.85
2022-12-03T10:53:09.983Z,99585.98
2022-12-03T10:55:45.697Z,99581.60
2022-12-03T10:58:22.879Z,99581.98
2022-12-03T11:00:56.159Z,99579.52
2022-12-03T11:03:28.988Z,99582.34
2022-12-03T11:06:01.518Z,99578.86
2022-12-03T11:08:35.448Z,99574.73
2022-12-03T11:11:08.255Z,99578.67
2022-12-03T11:13:51.740Z,99574.41
2022-12-03T11:17:02.646Z,99573.09
2022-12-03T11:19:52.031Z,99571.58
2022-12-03T11:22:43.571Z,99565.04
2022-12-03T11:25:50.576Z,99559.92
2022-12-03T11:28:49.055Z,99553.06
2022-12-03T11:31:37.798Z,99553.31
2022-12-03T11:34:51.115Z,99547.27
2022-12-03T11:37:31.581Z,99543.73
2022-12-03T11:40:30.048Z,99543.17
2022-12-03T11:43:05.819Z,99539.23
2022-12-03T11:45:39.459Z,99547.40
2022-12-03T11:48:18.889Z,99547.95
2022-12-03T11:50:54.408Z,99544.67
2022-12-03T11:53:27.525Z,99542.80
2022-12-03T11:56:09.198Z,99538.52
2022-12-03T11:58:43.569Z,99537.52
2022-12-03T12:01:15.403Z,99534.98
2022-12-03T12:03:48.354Z,99533.66
2022-12-03T12:06:21.197Z,99536.86
2022-12-03T12:09:00.439Z,99530.50
2022-12-03T12:11:33.242Z,99526.09
2022-12-03T12:14:05.410Z,99526.63
2022-12-03T12:16:58.493Z,99524.36
2022-12-03T12:19:37.798Z,99524.23
2022-12-03T12:22:21.067Z,99526.98
2022-12-03T12:24:54.334Z,99528.86
2022-12-03T12:27:32.119Z,99525.52
2022-12-03T12:30:06.073Z,99526.59
2022-12-03T12:32:43.306Z,99519.46
2022-12-03T12:35:19.991Z,99515.08
2022-12-03T12:37:58.957Z,99519.68
2022-12-03T12:40:34.102Z,99520.70
2022-12-03T12:43:13.528Z,99523.37
2022-12-03T12:45:47.491Z,99523.11
2022-12-03T12:48:25.029Z,99523.46
2022-12-03T12:51:01.640Z,99521.48
2022-12-03T12:53:34.712Z,99518.30
2022-12-03T12:56:14.583Z,99518.38
2022-12-03T12:58:45.661Z,99513.55
2022-12-03T13:01:22.323Z,99513.17
2022-12-03T13:03:55.256Z,99511.58
2022-12-03T13:06:29.491Z,99511.65
2022-12-03T13:09:01.364Z,99511.04
2022-12-03T13:11:41.465Z,99508.23
2022-12-03T13:14:19.343Z,99505.23
2022-12-03T13:16:52.103Z,99502.22
2022-12-03T13:19:27.836Z,99504.04
2022-12-03T13:22:01.447Z,99503.94
2022-12-03T13:24:38.172Z,99503.48
2022-12-03T13:27:29.594Z,99505.39
2022-12-03T13:30:04.481Z,99503.66
2022-12-03T13:32:37.869Z,99502.95
2022-12-03T13:35:17.695Z,99502.75
2022-12-03T13:37:46.825Z,99502.63
2022-12-03T13:40:27.374Z,99500.60
2022-12-03T13:42:58.507Z,99506.07
2022-12-03T13:45:36.803Z,99504.18
2022-12-03T13:48:24.992Z,99505.03
2022-12-03T13:50:56.450Z,99504.57
2022-12-03T13:53:29.407Z,99504.70
2022-12-03T13:56:23.403Z,99506.30
2022-12-03T13:58:54.377Z,99509.41
2022-12-03T14:01:25.424Z,99509.71
2022-12-03T14:03:56.439Z,99507.93
2022-12-03T14:06:27.486Z,99511.38
2022-12-03T14:08:58.524Z,99508.30
2022-12-03T14:11:47.077Z,99509.95
2022-12-03T14:14:18.063Z,99508.63
2022-12-03T14:16:49.399Z,99507.50
2022-12-03T14:19:20.338Z,99504.46
2022-12-03T14:21:51.246Z,99506.80
2022-12-03T14:24:22.029Z,99507.59
2022-12-03T14:26:52.833Z,99512.46
2022-12-03T14:29:23.973Z,99506.97
2022-12-03T14:31:55.049Z,99503.14
2022-12-03T14:34:26.056Z,99501.09
2022-12-03T14:36:57.009Z,99497.41
2022-12-03T14:39:28.882Z,99493.11
2022-12-03T14:42:15.581Z,99496.45
2022-12-03T14:44:48.683Z,99496.11
2022-12-03T14:47:22.939Z,99491.86
2022-12-03T14:49:54.588Z,99496.66
2022-12-03T14:52:25.583Z,99493.30
2022-12-03T14:54:56.444Z,99494.12
2022-12-03T14:57:27.787Z,99497.04
2022-12-03T14:59:58.939Z,99494.30
2022-12-03T15:02:32.884Z,99494.71
2022-12-03T15:05:03.988Z,99495.21
2022-12-03T15:07:35.177Z,99497.86
2022-12-03T15:10:07.601Z,99494.13
2022-12-03T15:12:38.356Z,99492.50
2022-12-03T15:15:12.521Z,99495.25
2022-12-03T15:17:47.439Z,99496.29
2022-12-03T15:20:18.655Z,99495.31
2022-12-03T15:22:49.793Z,99493.02
2022-12-03T15:25:24.563Z,99493.25
2022-12-03T15:27:55.356Z,99493.41
2022-12-03T15:30:26.433Z,99496.07
2022-12-03T15:32:57.448Z,99498.50
2022-12-03T15:35:30.788Z,99493.02
2022-12-03T15:38:01.791Z,99494.57
2022-12-03T15:40:33.111Z,99488.07
2022-12-03T15:43:04.083Z,99493.65
2022-12-03T15:45:35.041Z,99493.52
2022-12-03T15:48:06.969Z,99493.20
2022-12-03T15:50:40.319Z,99495.45
2022-12-03T15:53:09.748Z,99493.78
2022-12-03T15:55:41.052Z,99489.08
2022-12-03T15:58:12.075Z,99491.06
2022-12-03T16:00:45.191Z,99485.38
2022-12-03T16:03:16.208Z,99489.86
2022-12-03T16:05:48.610Z,99492.05
2022-12-03T16:08:19.512Z,99493.34
2022-12-03T16:10:50.492Z,99491.25
2022-12-03T16:13:21.337Z,99492.11
2022-12-03T16:15:52.536Z,99491.23
2022-12-03T16:18:23.637Z,99486.02
2022-12-03T16:20:54.322Z,99486.67
2022-12-03T16:23:25.225Z,99486.23
2022-12-03T16:25:58.427Z,99481.99
2022-12-03T16:28:29.351Z,99479.27
2022-12-03T16:31:00.230Z,99477.34
2022-12-03T16:33:31.235Z,99475.46
2022-12-03T16:36:02.096Z,99470.65
2022-12-03T16:38:33.763Z,99467.03
2022-12-03T16:41:05.100Z,99467.88
2022-12-03T16:43:38.733Z,99462.95
2022-12-03T16:46:26.846Z,99462.02
2022-12-03T16:48:59.062Z,99458.59
2022-12-03T16:51:31.408Z,99462.63
2022-12-03T16:54:02.143Z,99463.11
2022-12-03T16:56:33.049Z,99460.60
2022-12-03T16:59:03.983Z,99459.47
2022-12-03T17:01:35.121Z,99453.70
2022-12-03T17:04:06.179Z,99457.31
2022-12-03T17:06:37.139Z,99457.97
2022-12-03T17:09:07.928Z,99454.11
2022-12-03T17:11:38.902Z,99460.10
2022-12-03T17:14:09.741Z,99459.46
2022-12-03T17:16:40.581Z,99455.65
2022-12-03T17:19:11.509Z,99453.71
2022-12-03T17:21:42.281Z,99454.10
2022-12-03T17:24:13.203Z,99452.68
2022-12-03T17:26:44.810Z,99454.64
2022-12-03T17:29:15.601Z,99455.60
2022-12-03T17:31:46.665Z,99451.91
2022-12-03T17:34:17.473Z,99447.50
2022-12-03T17:36:48.536Z,99445.85
2022-12-03T17:39:19.451Z,99445.97
2022-12-03T17:41:50.456Z,99445.07
2022-12-03T17:44:21.588Z,99442.37
2022-12-03T17:46:52.493Z,99441.14
2022-12-03T17:49:26.970Z,99438.86
2022-12-03T17:52:02.202Z,99435.88
2022-12-03T17:54:55.276Z,99435.65
2022-12-03T17:57:24.852Z,99436.24
2022-12-03T17:59:56.108Z,99436.91
2022-12-03T18:02:27.454Z,99436.66
2022-12-03T18:04:58.380Z,99437.88
2022-12-03T18:07:29.405Z,99432.73
2022-12-03T18:10:00.360Z,99428.95
2022-12-03T18:12:31.417Z,99425.66
2022-12-03T18:15:02.347Z,99428.20
2022-12-03T18:17:33.397Z,99422.77
2022-12-03T18:20:04.881Z,99430.05
2022-12-03T18:22:35.928Z,99425.41
2022-12-03T18:25:08.200Z,99427.37
2022-12-03T18:27:39.592Z,99427.91
2022-12-03T18:30:12.259Z,99429.39
2022-12-03T18:32:43.144Z,99424.96
2022-12-03T18:35:14.015Z,99427.66
2022-12-03T18:37:44.929Z,99427.58
2022-12-03T18:40:22.937Z,99424.48
2022-12-03T18:42:54.054Z,99421.00
2022-12-03T18:45:24.983Z,99424.11
2022-12-03T18:47:56.126Z,99422.02
2022-12-03T18:50:29.057Z,99423.92
2022-12-03T18:52:59.896Z,99427.53
2022-12-03T18:55:34.538Z,99428.61
2022-12-03T18:58:05.472Z,99432.77
2022-12-03T19:00:36.505Z,99434.23
2022-12-03T19:03:08.324Z,99432.55
2022-12-03T19:05:39.520Z,99436.97
2022-12-03T19:08:17.070Z,99435.02
2022-12-03T19:10:55.945Z,99430.11
2022-12-03T19:13:28.727Z,99430.40
2022-12-03T19:16:02.541Z,99424.29
2022-12-03T19:18:34.397Z,99427.45
2022-12-03T19:21:13.438Z,99426.23
2022-12-03T19:24:15.972Z,99423.44
2022-12-03T19:26:36.901Z,99421.88
2022-12-03T19:29:09.630Z,99416.39
2022-12-03T19:31:40.929Z,99413.80
2022-12-03T19:34:12.011Z,99421.23
2022-12-03T19:36:43.125Z,99425.48
2022-12-03T19:39:15.571Z,99428.45
2022-12-03T19:41:46.650Z,99434.98
2022-12-03T19:44:19.036Z,99430.69
2022-12-03T19:46:53.744Z,99425.06
2022-12-03T19:49:24.755Z,99429.16
2022-12-03T19:51:57.397Z,99429.09
2022-12-03T19:54:29.451Z,99423.56
2022-12-03T19:57:00.839Z,99424.66
2022-12-03T19:59:32.879Z,99420.13
2022-12-03T20:02:06.137Z,99413.20
2022-12-03T20:04:38.468Z,99413.73
2022-12-03T20:07:10.984Z,99413.03
2022-12-03T20:09:43.141Z,99411.27
2022-12-03T20:12:14.229Z,99417.90
2022-12-03T20:14:46.656Z,99412.57
2022-12-03T20:17:17.651Z,99412.70
2022-12-03T20:19:49.361Z,99418.75
2022-12-03T20:22:21.589Z,99411.67
2022-12-03T20:24:52.643Z,99411.14
2022-12-03T20:27:23.600Z,99412.58
2022-12-03T20:29:55.683Z,99412.27
2022-12-03T20:32:28.551Z,99412.04
2022-12-03T20:34:59.780Z,99408.98
2022-12-03T20:37:31.901Z,99410.25
2022-12-03T20:40:02.822Z,99413.29
2022-12-03T20:42:34.785Z,99414.23
2022-12-03T20:45:07.252Z,99412.95
2022-12-03T20:47:39.235Z,99408.48
2022-12-03T20:50:13.395Z,99401.36
2022-12-03T20:53:03.360Z,99397.71
2022-12-03T20:55:37.591Z,99395.54
2022-12-03T20:58:09.237Z,99393.08
2022-12-03T21:00:41.310Z,99392.54
2022-12-03T21:03:13.074Z,99390.00
2022-12-03T21:05:45.181Z,99391.24
2022-12-03T21:08:24.505Z,99389.59
2022-12-03T21:11:10.574Z,99393.73
2022-12-03T21:13:44.395Z,99396.05
2022-12-03T21:16:17.145Z,99398.04
2022-12-03T21:18:49.350Z,99396.49
2022-12-03T21:21:21.569Z,99399.02
2022-12-03T21:23:53.610Z,99401.36
2022-12-03T21:26:25.511Z,99403.68
2022-12-03T21:28:56.810Z,99406.95
2022-12-03T21:31:30.423Z,99408.39
2022-12-03T21:34:00.634Z,99402.79
2022-12-03T21:36:32.110Z,99405.77
2022-12-03T21:39:03.395Z,99407.48
2022-12-03T21:41:35.257Z,99403.33
2022-12-03T21:44:06.264Z,99396.09
2022-12-03T21:47:09.832Z,99390.79
2022-12-03T21:49:28.241Z,99388.65
2022-12-03T21:51:59.337Z,99392.10
2022-12-03T21:54:30.398Z,99389.77
2022-12-03T21:57:01.220Z,99392.02
2022-12-03T21:59:32.249Z,99392.70
2022-12-03T22:02:03.434Z,99391.52
2022-12-03T22:04:34.587Z,99390.11
2022-12-03T22:07:06.210Z,99392.30
2022-12-03T22:09:37.264Z,99393.71
2022-12-03T22:12:09.010Z,99393.14
2022-12-03T22:14:40.000Z,99387.59
2022-12-03T22:17:10.809Z,99387.09
2022-12-03T22:19:42.219Z,99387.84
2022-12-03T22:22:13.057Z,99385.48
2022-12-03T22:24:45.777Z,99390.53
2022-12-03T22:27:16.897Z,99384.97
2022-12-03T22:29:47.693Z,99379.44
2022-12-03T22:32:18.764Z,99377.45
2022-12-03T22:34:50.077Z,99376.31
2022-12-03T22:37:21.370Z,99372.09
2022-12-03T22:39:52.495Z,99370.68
2022-12-03T22:42:23.612Z,99371.36
2022-12-03T22:44:54.438Z,99370.83
2022-12-03T22:47:25.200Z,99371.45
2022-12-03T22:49:56.454Z,99366.91
2022-12-03T22:52:27.479Z,99365.86
2022-12-03T22:54:58.527Z,99360.31
2022-12-03T22:57:29.848Z,99361.95
2022-12-03T23:00:02.185Z,99362.27
2022-12-03T23:02:33.756Z,99356.22
2022-12-03T23:05:04.989Z,99353.52
2022-12-03T23:07:35.835Z,99348.66
2022-12-03T23:10:08.621Z,99343.73
2022-12-03T23:12:39.990Z,99345.73
2022-12-03T23:15:12.486Z,99349.70
2022-12-03T23:17:43.749Z,99352.41
2022-12-03T23:20:16.390Z,99349.66
2022-12-03T23:22:48.647Z,99344.65
2022-12-03T23:25:20.585Z,99344.48
2022-12-03T23:27:51.496Z,99339.04
2022-12-03T23:30:22.456Z,99343.88
2022-12-03T23:32:57.100Z,99340.44
2022-12-03T23:35:28.038Z,99336.46
2022-12-03T23:37:58.993Z,99334.64
2022-12-03T23:40:29.936Z,99325.70
2022-12-03T23:43:00.789Z,99320.58
2022-12-03T23:45:32.992Z,99324.63
2022-12-03T23:48:04.206Z,99324.33
2022-12-03T23:50:34.969Z,99325.54
2022-12-03T23:53:05.713Z,99320.61
2022-12-03T23:55:39.668Z,99324.22
2022-12-03T23:58:10.284Z,99320.42
